createdAt,value
2023-01-13T00:00:53.082Z,29.06
2023-01-13T00:03:20.782Z,29.28
2023-01-13T00:05:48.623Z,29.38
2023-01-13T00:08:16.009Z,29.53
2023-01-13T00:10:46.515Z,29.50
2023-01-13T00:13:13.931Z,29.92
2023-01-13T00:15:41.286Z,29.72
2023-01-13T00:18:08.607Z,29.74
2023-01-13T00:20:35.979Z,29.49
2023-01-13T00:23:04.547Z,29.38
2023-01-13T00:25:31.799Z,29.22
2023-01-13T00:27:59.137Z,29.40
2023-01-13T00:30:26.421Z,29.43
2023-01-13T00:32:54.173Z,29.42
2023-01-13T00:35:21.466Z,29.53
2023-01-13T00:37:48.827Z,29.59
2023-01-13T00:40:16.191Z,29.68
2023-01-13T00:43:02.095Z,29.58
2023-01-13T00:45:29.427Z,29.78
2023-01-13T00:48:02.546Z,30.20
2023-01-13T00:50:30.718Z,29.90
2023-01-13T00:53:00.941Z,30.15
2023-01-13T00:55:30.651Z,29.92
2023-01-13T00:58:03.424Z,30.06
2023-01-13T01:00:32.816Z,29.87
2023-01-13T01:03:00.179Z,30.05
2023-01-13T01:05:27.492Z,30.14
2023-01-13T01:07:54.921Z,29.98
2023-01-13T01:10:22.182Z,29.69
2023-01-13T01:12:51.021Z,29.51
2023-01-13T01:15:18.508Z,30.09
2023-01-13T01:17:45.809Z,29.93
2023-01-13T01:20:13.261Z,29.88
2023-01-13T01:22:40.926Z,30.30
2023-01-13T01:25:08.501Z,30.02
2023-01-13T01:27:35.856Z,30.19
2023-01-13T01:30:03.323Z,30.30
2023-01-13T01:32:30.737Z,30.24
2023-01-13T01:34:58.040Z,30.13
2023-01-13T01:37:25.405Z,30.05
2023-01-13T01:39:52.766Z,30.08
2023-01-13T01:42:38.507Z,29.99
2023-01-13T01:45:19.495Z,30.24
2023-01-13T01:47:48.537Z,30.43
2023-01-13T01:50:17.126Z,30.29
2023-01-13T01:52:47.633Z,30.15
2023-01-13T01:55:15.076Z,30.28
2023-01-13T01:57:48.774Z,30.06
2023-01-13T02:00:16.293Z,29.88
2023-01-13T02:02:45.252Z,30.27
2023-01-13T02:05:12.765Z,30.53
2023-01-13T02:07:41.748Z,30.11
2023-01-13T02:10:10.848Z,30.00
2023-01-13T02:12:39.571Z,30.66
2023-01-13T02:15:12.323Z,30.69
2023-01-13T02:17:40.193Z,30.35
2023-01-13T02:20:10.493Z,30.43
2023-01-13T02:22:56.199Z,30.69
2023-01-13T02:25:35.945Z,30.55
2023-01-13T02:28:14.565Z,30.67
2023-01-13T02:31:06.649Z,30.40
2023-01-13T02:33:41.510Z,30.56
2023-01-13T02:36:15.042Z,30.75
2023-01-13T02:38:50.278Z,30.06
2023-01-13T02:41:43.260Z,29.79
2023-01-13T02:44:11.246Z,30.12
2023-01-13T02:46:55.194Z,30.60
2023-01-13T02:49:28.545Z,30.31
2023-01-13T02:51:59.237Z,30.31
2023-01-13T02:54:28.599Z,29.70
2023-01-13T02:56:58.241Z,28.92
2023-01-13T02:59:27.952Z,29.87
2023-01-13T03:01:57.080Z,30.23
2023-01-13T03:04:43.199Z,30.08
2023-01-13T03:07:13.102Z,29.36
2023-01-13T03:09:44.091Z,29.30
2023-01-13T03:12:17.493Z,29.39
2023-01-13T03:14:44.755Z,29.36
2023-01-13T03:17:41.174Z,29.84
2023-01-13T03:20:37.672Z,29.57
2023-01-13T03:23:04.884Z,29.14
2023-01-13T03:25:36.062Z,28.81
2023-01-13T03:28:12.227Z,29.12
2023-01-13T03:30:41.064Z,28.89
2023-01-13T03:33:28.589Z,29.33
2023-01-13T03:35:58.537Z,29.36
2023-01-13T03:38:32.314Z,29.12
2023-01-13T03:41:01.761Z,28.74
2023-01-13T03:43:53.041Z,28.91
2023-01-13T03:46:24.783Z,28.73
2023-01-13T03:48:54.908Z,28.86
2023-01-13T03:51:25.866Z,28.88
2023-01-13T03:53:57.332Z,28.67
2023-01-13T03:56:25.592Z,28.21
2023-01-13T03:58:54.118Z,28.50
2023-01-13T04:01:37.459Z,28.84
2023-01-13T04:04:10.330Z,28.30
2023-01-13T04:06:49.887Z,28.55
2023-01-13T04:09:19.985Z,28.45
2023-01-13T04:11:52.224Z,29.12
2023-01-13T04:14:20.647Z,29.18
2023-01-13T04:16:48.433Z,28.97
2023-01-13T04:19:15.835Z,28.81
2023-01-13T04:21:43.056Z,28.97
2023-01-13T04:24:10.357Z,28.86
2023-01-13T04:26:37.763Z,28.49
2023-01-13T04:29:05.047Z,28.81
2023-01-13T04:31:32.231Z,29.21
2023-01-13T04:33:59.598Z,29.09
2023-01-13T04:36:27.773Z,29.16
2023-01-13T04:38:55.260Z,29.65
2023-01-13T04:41:22.540Z,29.05
2023-01-13T04:43:49.706Z,29.28
2023-01-13T04:46:16.965Z,29.02
2023-01-13T04:48:44.281Z,28.59
2023-01-13T04:51:11.775Z,28.42
2023-01-13T04:53:39.016Z,28.66
2023-01-13T04:56:06.355Z,29.20
2023-01-13T04:58:33.644Z,28.91
2023-01-13T05:01:00.879Z,28.96
2023-01-13T05:03:28.135Z,29.47
2023-01-13T05:05:55.387Z,29.28
2023-01-13T05:08:22.656Z,29.15
2023-01-13T05:10:49.914Z,29.13
2023-01-13T05:13:35.524Z,29.62
2023-01-13T05:16:22.942Z,29.14
2023-01-13T05:18:50.176Z,29.35
2023-01-13T05:21:36.105Z,29.09
2023-01-13T05:24:21.824Z,29.03
2023-01-13T05:26:49.183Z,28.96
2023-01-13T05:29:16.369Z,29.30
2023-01-13T05:31:43.719Z,29.47
2023-01-13T05:34:10.959Z,28.95
2023-01-13T05:36:38.243Z,29.11
2023-01-13T05:39:05.476Z,29.11
2023-01-13T05:41:51.083Z,28.90
2023-01-13T05:44:18.577Z,28.90
2023-01-13T05:46:45.878Z,29.13
2023-01-13T05:49:13.172Z,29.00
2023-01-13T05:51:40.352Z,28.93
2023-01-13T05:54:07.660Z,29.07
2023-01-13T05:56:35.586Z,29.08
2023-01-13T05:59:02.813Z,28.74
2023-01-13T06:01:30.121Z,28.86
2023-01-13T06:03:57.473Z,29.31
2023-01-13T06:06:24.705Z,28.95
2023-01-13T06:08:52.068Z,28.57
2023-01-13T06:11:19.370Z,28.69
2023-01-13T06:13:46.681Z,28.43
2023-01-13T06:16:14.032Z,28.27
2023-01-13T06:18:41.478Z,28.57
2023-01-13T06:21:08.712Z,28.70
2023-01-13T06:23:38.677Z,28.73
2023-01-13T06:26:12.196Z,29.18
2023-01-13T06:28:39.714Z,28.46
2023-01-13T06:31:08.942Z,28.65
2023-01-13T06:33:56.449Z,28.65
2023-01-13T06:36:25.279Z,28.50
2023-01-13T06:38:54.609Z,28.66
2023-01-13T06:41:42.278Z,28.72
2023-01-13T06:44:09.919Z,28.36
2023-01-13T06:46:37.312Z,28.26
2023-01-13T06:49:04.694Z,27.98
2023-01-13T06:51:31.920Z,27.88
2023-01-13T06:53:59.252Z,28.33
2023-01-13T06:56:26.529Z,28.34
2023-01-13T06:58:53.795Z,27.80
2023-01-13T07:01:21.129Z,28.02
2023-01-13T07:03:48.548Z,28.15
2023-01-13T07:06:15.764Z,28.29
2023-01-13T07:08:43.019Z,28.45
2023-01-13T07:11:10.295Z,27.73
2023-01-13T07:13:55.996Z,27.01
2023-01-13T07:16:24.449Z,27.95
2023-01-13T07:18:51.706Z,27.55
2023-01-13T07:21:20.106Z,27.12
2023-01-13T07:23:48.167Z,27.78
2023-01-13T07:26:15.790Z,27.60
2023-01-13T07:28:43.136Z,28.33
2023-01-13T07:31:14.999Z,27.65
2023-01-13T07:33:42.282Z,28.48
2023-01-13T07:36:09.701Z,28.60
2023-01-13T07:38:38.571Z,28.78
2023-01-13T07:41:24.666Z,29.24
2023-01-13T07:43:53.011Z,28.54
2023-01-13T07:46:20.248Z,28.77
2023-01-13T07:48:47.992Z,28.15
2023-01-13T07:51:15.250Z,29.04
2023-01-13T07:53:42.655Z,28.89
2023-01-13T07:56:10.219Z,29.33
2023-01-13T07:58:37.912Z,28.81
2023-01-13T08:01:09.576Z,27.76
2023-01-13T08:03:36.881Z,27.64
2023-01-13T08:06:04.993Z,27.58
2023-01-13T08:08:32.292Z,27.50
2023-01-13T08:11:00.327Z,26.99
2023-01-13T08:13:27.615Z,27.46
2023-01-13T08:15:59.834Z,27.76
2023-01-13T08:18:27.219Z,29.05
2023-01-13T08:20:55.012Z,29.17
2023-01-13T08:23:23.006Z,28.96
2023-01-13T08:25:50.697Z,28.46
2023-01-13T08:28:18.040Z,29.23
2023-01-13T08:30:45.510Z,29.38
2023-01-13T08:33:13.027Z,29.23
2023-01-13T08:35:40.781Z,29.37
2023-01-13T08:38:08.283Z,29.60
2023-01-13T08:40:35.729Z,29.33
2023-01-13T08:43:03.390Z,29.93
2023-01-13T08:45:31.064Z,30.34
2023-01-13T08:47:58.345Z,29.27
2023-01-13T08:50:25.647Z,29.38
2023-01-13T08:52:53.088Z,29.57
2023-01-13T08:55:20.411Z,29.33
2023-01-13T08:57:47.737Z,29.38
2023-01-13T09:00:17.220Z,28.57
2023-01-13T09:02:44.622Z,28.49
2023-01-13T09:05:11.924Z,28.90
2023-01-13T09:07:39.253Z,29.46
2023-01-13T09:10:07.219Z,28.48
2023-01-13T09:12:53.188Z,28.77
2023-01-13T09:15:21.691Z,28.94
2023-01-13T09:17:48.939Z,29.27
2023-01-13T09:20:16.310Z,29.56
2023-01-13T09:22:43.620Z,29.30
2023-01-13T09:25:12.568Z,28.83
2023-01-13T09:27:39.768Z,28.91
2023-01-13T09:30:07.840Z,29.03
2023-01-13T09:32:35.265Z,29.63
2023-01-13T09:35:02.931Z,29.46
2023-01-13T09:37:34.302Z,29.21
2023-01-13T09:40:02.244Z,29.04
2023-01-13T09:42:48.121Z,29.45
2023-01-13T09:45:21.600Z,28.80
2023-01-13T09:47:56.740Z,29.22
2023-01-13T09:50:44.068Z,28.72
2023-01-13T09:53:19.010Z,29.16
2023-01-13T09:55:46.366Z,28.84
2023-01-13T09:58:17.472Z,28.86
2023-01-13T10:01:01.011Z,29.55
2023-01-13T10:03:29.605Z,28.91
2023-01-13T10:05:59.638Z,29.39
2023-01-13T10:08:29.465Z,29.08
2023-01-13T10:11:21.257Z,28.77
2023-01-13T10:13:51.040Z,28.74
2023-01-13T10:16:29.691Z,28.44
2023-01-13T10:18:57.058Z,28.92
2023-01-13T10:21:27.135Z,29.22
2023-01-13T10:24:01.699Z,28.92
2023-01-13T10:26:39.793Z,29.51
2023-01-13T10:29:36.160Z,28.72
2023-01-13T10:32:03.603Z,30.01
2023-01-13T10:34:31.000Z,29.15
2023-01-13T10:37:03.428Z,29.80
2023-01-13T10:39:39.371Z,29.67
2023-01-13T10:42:10.807Z,29.59
2023-01-13T10:44:46.649Z,29.36
2023-01-13T10:47:21.736Z,29.96
2023-01-13T10:50:09.543Z,30.47
2023-01-13T10:52:43.480Z,29.62
2023-01-13T10:55:33.169Z,30.42
2023-01-13T10:58:12.562Z,30.39
2023-01-13T11:00:39.965Z,30.92
2023-01-13T11:03:13.634Z,30.49
2023-01-13T11:05:47.792Z,30.78
2023-01-13T11:08:17.424Z,30.09
2023-01-13T11:10:47.116Z,30.08
2023-01-13T11:13:21.899Z,30.55
2023-01-13T11:16:07.958Z,30.88
2023-01-13T11:18:41.092Z,30.11
2023-01-13T11:21:13.170Z,30.67
2023-01-13T11:23:43.817Z,30.22
2023-01-13T11:26:37.077Z,30.44
2023-01-13T11:29:09.922Z,30.25
2023-01-13T11:31:40.035Z,30.15
2023-01-13T11:34:27.695Z,30.24
2023-01-13T11:36:56.953Z,30.09
2023-01-13T11:39:42.860Z,29.82
2023-01-13T11:42:21.756Z,30.54
2023-01-13T11:45:01.953Z,29.83
2023-01-13T11:47:29.966Z,30.24
2023-01-13T11:49:57.219Z,30.49
2023-01-13T11:52:28.212Z,30.58
2023-01-13T11:55:03.191Z,30.49
2023-01-13T11:57:49.036Z,30.01
2023-01-13T12:00:36.616Z,30.09
2023-01-13T12:03:15.913Z,30.29
2023-01-13T12:05:49.555Z,30.41
2023-01-13T12:08:26.162Z,29.69
2023-01-13T12:10:59.221Z,29.90
2023-01-13T12:13:45.472Z,30.17
2023-01-13T12:16:12.687Z,30.41
2023-01-13T12:18:39.917Z,30.06
2023-01-13T12:21:13.354Z,30.70
2023-01-13T12:23:51.891Z,30.41
2023-01-13T12:26:19.266Z,30.39
2023-01-13T12:28:50.257Z,30.19
2023-01-13T12:31:19.134Z,30.68
2023-01-13T12:34:00.025Z,30.89
2023-01-13T12:36:45.488Z,30.41
2023-01-13T12:39:12.787Z,30.51
2023-01-13T12:42:04.025Z,30.01
2023-01-13T12:44:31.372Z,29.78
2023-01-13T12:46:59.456Z,30.48
2023-01-13T12:49:26.828Z,30.21
2023-01-13T12:51:56.842Z,30.37
2023-01-13T12:54:45.105Z,30.23
2023-01-13T12:57:24.746Z,30.75
2023-01-13T13:00:15.388Z,30.50
2023-01-13T13:02:44.173Z,30.42
2023-01-13T13:05:14.162Z,30.40
2023-01-13T13:08:01.675Z,30.66
2023-01-13T13:10:31.577Z,30.85
2023-01-13T13:13:18.419Z,30.50
2023-01-13T13:15:47.242Z,30.57
2023-01-13T13:18:17.565Z,29.72
2023-01-13T13:20:55.221Z,30.77
2023-01-13T13:23:28.617Z,30.70
2023-01-13T13:26:01.024Z,30.23
2023-01-13T13:28:33.332Z,30.79
2023-01-13T13:31:26.958Z,31.08
2023-01-13T13:34:07.178Z,31.20
2023-01-13T13:37:00.477Z,31.27
2023-01-13T13:40:08.687Z,31.22
2023-01-13T13:43:07.840Z,30.92
2023-01-13T13:45:53.807Z,31.15
2023-01-13T13:48:31.024Z,31.03
2023-01-13T13:51:02.372Z,30.74
2023-01-13T13:53:41.918Z,31.04
2023-01-13T13:56:16.968Z,30.97
2023-01-13T13:58:44.264Z,30.48
2023-01-13T14:01:37.839Z,30.81
2023-01-13T14:04:11.599Z,30.65
2023-01-13T14:06:48.953Z,31.42
2023-01-13T14:09:17.648Z,31.21
2023-01-13T14:11:53.869Z,31.09
2023-01-13T14:14:21.244Z,30.75
2023-01-13T14:16:51.729Z,31.27
2023-01-13T14:19:26.306Z,30.92
2023-01-13T14:21:53.757Z,31.01
2023-01-13T14:24:22.573Z,30.71
2023-01-13T14:26:53.249Z,31.04
2023-01-13T14:29:22.170Z,30.76
2023-01-13T14:31:50.626Z,30.51
2023-01-13T14:34:32.044Z,30.34
2023-01-13T14:37:01.319Z,30.86
2023-01-13T14:39:40.253Z,30.78
2023-01-13T14:42:14.298Z,31.02
2023-01-13T14:44:44.220Z,30.60
2023-01-13T14:47:32.270Z,30.73
2023-01-13T14:50:20.236Z,30.84
2023-01-13T14:52:52.658Z,30.67
2023-01-13T14:55:22.463Z,31.19
2023-01-13T14:57:49.812Z,30.67
2023-01-13T15:00:18.820Z,30.93
2023-01-13T15:02:59.759Z,30.81
2023-01-13T15:05:27.076Z,30.59
2023-01-13T15:07:54.269Z,30.34
2023-01-13T15:10:23.959Z,30.78
2023-01-13T15:12:52.883Z,30.36
2023-01-13T15:15:46.621Z,30.82
2023-01-13T15:18:15.697Z,30.98
2023-01-13T15:20:43.175Z,30.96
2023-01-13T15:23:11.060Z,31.08
2023-01-13T15:25:40.289Z,30.91
2023-01-13T15:28:14.460Z,30.65
2023-01-13T15:30:41.711Z,30.65
2023-01-13T15:33:10.572Z,30.76
2023-01-13T15:35:39.664Z,31.01
2023-01-13T15:38:10.365Z,30.80
2023-01-13T15:40:37.730Z,31.10
2023-01-13T15:43:23.329Z,30.67
2023-01-13T15:46:09.394Z,31.01
2023-01-13T15:48:36.674Z,30.78
2023-01-13T15:51:04.814Z,31.03
2023-01-13T15:53:37.007Z,30.92
2023-01-13T15:56:05.419Z,31.07
2023-01-13T15:58:32.659Z,31.09
2023-01-13T16:01:00.166Z,30.97
2023-01-13T16:03:27.446Z,31.20
2023-01-13T16:05:54.665Z,30.85
2023-01-13T16:08:23.969Z,30.88
2023-01-13T16:10:51.341Z,31.07
2023-01-13T16:13:18.536Z,31.07
2023-01-13T16:15:47.269Z,30.89
2023-01-13T16:18:16.294Z,31.01
2023-01-13T16:20:43.954Z,31.04
2023-01-13T16:23:12.156Z,31.25
2023-01-13T16:25:39.764Z,30.89
2023-01-13T16:28:07.001Z,30.83
2023-01-13T16:30:35.978Z,30.62
2023-01-13T16:33:03.679Z,30.61
2023-01-13T16:35:35.363Z,30.79
2023-01-13T16:38:02.898Z,30.89
2023-01-13T16:40:34.386Z,30.93
2023-01-13T16:43:03.597Z,30.56
2023-01-13T16:45:31.604Z,30.85
2023-01-13T16:47:58.922Z,30.68
2023-01-13T16:50:35.930Z,30.72
2023-01-13T16:53:04.441Z,30.51
2023-01-13T16:55:32.067Z,30.34
2023-01-13T16:57:59.550Z,30.43
2023-01-13T17:00:26.847Z,30.59
2023-01-13T17:02:54.101Z,30.67
2023-01-13T17:05:21.411Z,30.63
2023-01-13T17:07:48.790Z,30.82
2023-01-13T17:10:17.572Z,30.77
2023-01-13T17:12:44.898Z,30.13
2023-01-13T17:15:12.981Z,30.05
2023-01-13T17:17:41.237Z,30.82
2023-01-13T17:20:10.588Z,30.97
2023-01-13T17:22:37.835Z,31.13
2023-01-13T17:25:05.206Z,31.28
2023-01-13T17:27:32.554Z,31.34
2023-01-13T17:29:59.762Z,31.06
2023-01-13T17:32:27.036Z,30.18
2023-01-13T17:34:54.322Z,30.98
2023-01-13T17:37:21.683Z,31.15
2023-01-13T17:39:51.079Z,31.26
2023-01-13T17:42:18.397Z,31.11
2023-01-13T17:44:46.974Z,30.84
2023-01-13T17:47:14.648Z,31.00
2023-01-13T17:49:41.943Z,31.00
2023-01-13T17:52:09.458Z,31.10
2023-01-13T17:54:36.680Z,31.04
2023-01-13T17:57:03.975Z,30.69
2023-01-13T17:59:31.206Z,31.24
2023-01-13T18:01:58.636Z,30.82
2023-01-13T18:04:29.177Z,31.17
2023-01-13T18:06:59.557Z,31.26
2023-01-13T18:09:26.864Z,30.39
2023-01-13T18:11:54.134Z,30.86
2023-01-13T18:14:22.609Z,31.07
2023-01-13T18:16:49.906Z,31.14
2023-01-13T18:19:35.988Z,31.10
2023-01-13T18:22:21.640Z,31.13
2023-01-13T18:25:07.490Z,30.99
2023-01-13T18:27:35.936Z,30.96
2023-01-13T18:30:04.203Z,31.13
2023-01-13T18:32:33.578Z,31.10
2023-01-13T18:35:06.394Z,31.19
2023-01-13T18:37:38.878Z,31.13
2023-01-13T18:40:07.253Z,31.19
2023-01-13T18:42:54.417Z,31.19
2023-01-13T18:45:31.859Z,31.28
2023-01-13T18:48:00.852Z,31.31
2023-01-13T18:50:28.466Z,31.11
2023-01-13T18:52:55.883Z,31.37
2023-01-13T18:55:23.380Z,31.00
2023-01-13T18:57:50.919Z,31.16
2023-01-13T19:00:19.622Z,31.11
2023-01-13T19:02:47.594Z,30.97
2023-01-13T19:05:14.919Z,31.17
2023-01-13T19:07:43.498Z,31.13
2023-01-13T19:10:13.132Z,30.99
2023-01-13T19:12:40.543Z,31.22
2023-01-13T19:15:08.889Z,31.13
2023-01-13T19:17:36.341Z,31.39
2023-01-13T19:20:05.153Z,31.20
2023-01-13T19:22:33.518Z,31.03
2023-01-13T19:25:01.511Z,30.98
2023-01-13T19:27:28.863Z,30.91
2023-01-13T19:30:00.658Z,30.96
2023-01-13T19:32:30.946Z,31.47
2023-01-13T19:34:59.614Z,31.41
2023-01-13T19:37:31.607Z,30.81
2023-01-13T19:39:59.466Z,30.97
2023-01-13T19:42:45.550Z,30.60
2023-01-13T19:45:30.663Z,30.69
2023-01-13T19:47:59.306Z,30.35
2023-01-13T19:50:26.563Z,31.16
2023-01-13T19:52:53.923Z,31.26
2023-01-13T19:55:21.188Z,30.96
2023-01-13T19:57:48.528Z,31.10
2023-01-13T20:00:20.598Z,31.11
2023-01-13T20:02:49.679Z,30.81
2023-01-13T20:05:21.253Z,31.09
2023-01-13T20:07:49.903Z,30.78
2023-01-13T20:10:17.860Z,30.91
2023-01-13T20:12:45.403Z,31.02
2023-01-13T20:15:12.659Z,30.79
2023-01-13T20:17:41.497Z,30.75
2023-01-13T20:20:09.571Z,30.41
2023-01-13T20:22:37.548Z,30.45
2023-01-13T20:25:05.450Z,30.27
2023-01-13T20:27:32.891Z,30.42
2023-01-13T20:30:00.178Z,30.58
2023-01-13T20:32:27.484Z,31.00
2023-01-13T20:34:54.730Z,30.79
2023-01-13T20:37:22.873Z,30.81
2023-01-13T20:39:50.103Z,30.72
2023-01-13T20:42:29.539Z,30.98
2023-01-13T20:44:57.252Z,30.78
2023-01-13T20:47:25.203Z,31.14
2023-01-13T20:49:53.486Z,30.88
2023-01-13T20:52:20.847Z,30.90
2023-01-13T20:54:48.353Z,30.55
2023-01-13T20:57:15.729Z,31.01
2023-01-13T20:59:43.059Z,30.81
2023-01-13T21:02:14.461Z,30.89
2023-01-13T21:04:41.950Z,30.29
2023-01-13T21:07:09.649Z,30.72
2023-01-13T21:09:37.010Z,30.38
2023-01-13T21:12:23.057Z,30.14
2023-01-13T21:15:08.786Z,30.74
2023-01-13T21:17:54.574Z,30.48
2023-01-13T21:20:21.956Z,30.99
2023-01-13T21:22:49.436Z,30.20
2023-01-13T21:25:17.305Z,30.66
2023-01-13T21:27:44.551Z,30.89
2023-01-13T21:30:15.625Z,30.42
2023-01-13T21:32:43.653Z,30.36
2023-01-13T21:35:11.734Z,30.63
2023-01-13T21:37:39.727Z,30.65
2023-01-13T21:40:09.161Z,30.94
2023-01-13T21:42:54.839Z,30.88
2023-01-13T21:45:40.805Z,30.37
2023-01-13T21:48:08.226Z,30.13
2023-01-13T21:50:36.096Z,30.23
2023-01-13T21:53:03.350Z,30.44
2023-01-13T21:55:31.359Z,31.09
2023-01-13T21:58:11.096Z,30.66
2023-01-13T22:00:39.111Z,31.07
2023-01-13T22:03:07.746Z,31.02
2023-01-13T22:05:35.721Z,30.53
2023-01-13T22:08:03.491Z,30.16
2023-01-13T22:10:31.666Z,30.65
2023-01-13T22:13:00.392Z,30.64
2023-01-13T22:15:29.259Z,30.76
2023-01-13T22:17:56.522Z,30.73
2023-01-13T22:20:24.157Z,30.28
2023-01-13T22:22:51.407Z,30.23
2023-01-13T22:25:20.264Z,29.75
2023-01-13T22:27:48.504Z,29.65
2023-01-13T22:30:18.365Z,29.55
2023-01-13T22:32:46.090Z,29.97
2023-01-13T22:35:14.067Z,30.64
2023-01-13T22:37:42.053Z,30.05
2023-01-13T22:40:10.642Z,30.13
2023-01-13T22:42:38.706Z,30.35
2023-01-13T22:45:10.813Z,30.58
2023-01-13T22:47:38.485Z,30.35
2023-01-13T22:50:06.593Z,30.29
2023-01-13T22:52:34.743Z,29.98
2023-01-13T22:55:02.074Z,30.05
2023-01-13T22:57:36.321Z,29.69
2023-01-13T23:00:06.469Z,29.99
2023-01-13T23:02:34.655Z,29.72
2023-01-13T23:05:01.987Z,29.65
2023-01-13T23:07:30.063Z,29.30
2023-01-13T23:09:57.324Z,29.38
2023-01-13T23:12:24.516Z,29.75
2023-01-13T23:14:51.897Z,29.50
2023-01-13T23:17:19.113Z,29.55
2023-01-13T23:19:46.417Z,29.57
2023-01-13T23:22:15.859Z,29.73
2023-01-13T23:24:43.117Z,29.69
2023-01-13T23:27:10.341Z,29.47
2023-01-13T23:29:37.913Z,30.01
2023-01-13T23:32:05.320Z,30.19
2023-01-13T23:34:35.185Z,30.00
2023-01-13T23:37:02.570Z,29.95
2023-01-13T23:39:29.772Z,29.71
2023-01-13T23:41:57.170Z,29.65
2023-01-13T23:44:24.449Z,29.25
2023-01-13T23:46:51.684Z,29.76
2023-01-13T23:49:19.280Z,30.14
2023-01-13T23:51:49.520Z,30.02
2023-01-13T23:54:17.135Z,30.18
2023-01-13T23:56:44.366Z,30.06
2023-01-13T23:59:11.726Z,29.83
